sensor_id;sensor_type;location;lat;lon;timestamp;P1;durP1;ratioP1;P2;durP2;ratioP2
13973;SDS011;7060;43.770;4.008;2023-08-30T00:00:06;2.23;;;1.23;;
13973;SDS011;7060;43.770;4.008;2023-08-30T00:02:36;3.60;;;1.07;;
13973;SDS011;7060;43.770;4.008;2023-08-30T00:05:05;2.30;;;1.30;;
13973;SDS011;7060;43.770;4.008;2023-08-30T00:07:36;3.23;;;1.30;;
13973;SDS011;7060;43.770;4.008;2023-08-30T00:10:05;2.57;;;1.00;;
13973;SDS011;7060;43.770;4.008;2023-08-30T00:12:39;3.20;;;1.37;;
13973;SDS011;7060;43.770;4.008;2023-08-30T00:15:09;2.57;;;1.30;;
13973;SDS011;7060;43.770;4.008;2023-08-30T00:17:38;7.23;;;1.10;;
13973;SDS011;7060;43.770;4.008;2023-08-30T00:20:07;1.30;;;0.90;;
13973;SDS011;7060;43.770;4.008;2023-08-30T00:22:38;2.77;;;1.40;;
13973;SDS011;7060;43.770;4.008;2023-08-30T00:25:07;2.80;;;1.00;;
13973;SDS011;7060;43.770;4.008;2023-08-30T00:27:36;3.83;;;1.23;;
13973;SDS011;7060;43.770;4.008;2023-08-30T00:30:05;1.43;;;0.93;;
13973;SDS011;7060;43.770;4.008;2023-08-30T00:32:37;2.43;;;1.10;;
13973;SDS011;7060;43.770;4.008;2023-08-30T00:35:06;1.43;;;0.90;;
13973;SDS011;7060;43.770;4.008;2023-08-30T00:37:36;2.30;;;1.27;;
13973;SDS011;7060;43.770;4.008;2023-08-30T00:40:05;1.57;;;1.10;;
13973;SDS011;7060;43.770;4.008;2023-08-30T00:42:34;2.47;;;1.10;;
13973;SDS011;7060;43.770;4.008;2023-08-30T00:45:05;1.73;;;0.90;;
13973;SDS011;7060;43.770;4.008;2023-08-30T00:47:34;2.13;;;1.17;;
13973;SDS011;7060;43.770;4.008;2023-08-30T00:50:05;3.10;;;1.17;;
13973;SDS011;7060;43.770;4.008;2023-08-30T00:52:36;3.27;;;1.10;;
13973;SDS011;7060;43.770;4.008;2023-08-30T00:55:05;1.37;;;0.97;;
13973;SDS011;7060;43.770;4.008;2023-08-30T00:57:35;2.67;;;1.23;;
13973;SDS011;7060;43.770;4.008;2023-08-30T01:00:05;1.97;;;1.00;;
13973;SDS011;7060;43.770;4.008;2023-08-30T01:02:38;1.33;;;1.00;;
13973;SDS011;7060;43.770;4.008;2023-08-30T01:05:07;1.90;;;1.20;;
13973;SDS011;7060;43.770;4.008;2023-08-30T01:07:37;1.30;;;0.90;;
13973;SDS011;7060;43.770;4.008;2023-08-30T01:10:06;1.60;;;1.00;;
13973;SDS011;7060;43.770;4.008;2023-08-30T01:12:37;1.57;;;0.70;;
13973;SDS011;7060;43.770;4.008;2023-08-30T01:15:10;2.03;;;1.20;;
13973;SDS011;7060;43.770;4.008;2023-08-30T01:17:45;2.57;;;1.07;;
13973;SDS011;7060;43.770;4.008;2023-08-30T01:20:16;1.67;;;1.00;;
13973;SDS011;7060;43.770;4.008;2023-08-30T01:22:53;1.30;;;0.90;;
13973;SDS011;7060;43.770;4.008;2023-08-30T01:25:37;2.57;;;0.90;;
13973;SDS011;7060;43.770;4.008;2023-08-30T01:28:15;2.07;;;1.27;;
13973;SDS011;7060;43.770;4.008;2023-08-30T01:30:47;1.30;;;1.00;;
13973;SDS011;7060;43.770;4.008;2023-08-30T01:33:16;3.47;;;1.30;;
13973;SDS011;7060;43.770;4.008;2023-08-30T01:35:47;3.20;;;0.83;;
13973;SDS011;7060;43.770;4.008;2023-08-30T01:38:16;1.90;;;1.10;;
13973;SDS011;7060;43.770;4.008;2023-08-30T01:40:46;1.60;;;1.00;;
13973;SDS011;7060;43.770;4.008;2023-08-30T01:43:17;1.40;;;0.90;;
13973;SDS011;7060;43.770;4.008;2023-08-30T01:45:48;2.03;;;1.17;;
13973;SDS011;7060;43.770;4.008;2023-08-30T01:48:17;2.70;;;0.90;;
13973;SDS011;7060;43.770;4.008;2023-08-30T01:50:46;1.40;;;0.90;;
13973;SDS011;7060;43.770;4.008;2023-08-30T01:53:16;4.20;;;1.20;;
13973;SDS011;7060;43.770;4.008;2023-08-30T01:55:45;1.33;;;0.80;;
13973;SDS011;7060;43.770;4.008;2023-08-30T01:58:14;2.00;;;1.00;;
13973;SDS011;7060;43.770;4.008;2023-08-30T02:00:45;3.70;;;0.90;;
13973;SDS011;7060;43.770;4.008;2023-08-30T02:03:14;2.23;;;1.00;;
13973;SDS011;7060;43.770;4.008;2023-08-30T02:05:47;2.30;;;0.93;;
13973;SDS011;7060;43.770;4.008;2023-08-30T02:08:25;3.50;;;1.07;;
13973;SDS011;7060;43.770;4.008;2023-08-30T02:10:59;2.03;;;1.10;;
13973;SDS011;7060;43.770;4.008;2023-08-30T02:13:33;3.77;;;1.23;;
13973;SDS011;7060;43.770;4.008;2023-08-30T02:16:05;1.17;;;0.97;;
13973;SDS011;7060;43.770;4.008;2023-08-30T02:18:37;1.13;;;0.80;;
13973;SDS011;7060;43.770;4.008;2023-08-30T02:21:06;2.03;;;0.90;;
13973;SDS011;7060;43.770;4.008;2023-08-30T02:23:35;1.50;;;1.00;;
13973;SDS011;7060;43.770;4.008;2023-08-30T02:26:04;2.30;;;1.03;;
13973;SDS011;7060;43.770;4.008;2023-08-30T02:28:33;4.93;;;1.00;;
13973;SDS011;7060;43.770;4.008;2023-08-30T02:31:06;1.00;;;0.80;;
13973;SDS011;7060;43.770;4.008;2023-08-30T02:33:35;1.40;;;1.00;;
13973;SDS011;7060;43.770;4.008;2023-08-30T02:36:04;2.33;;;1.00;;
13973;SDS011;7060;43.770;4.008;2023-08-30T02:38:33;1.67;;;0.90;;
13973;SDS011;7060;43.770;4.008;2023-08-30T02:41:02;1.67;;;0.83;;
13973;SDS011;7060;43.770;4.008;2023-08-30T02:43:30;2.07;;;0.93;;
13973;SDS011;7060;43.770;4.008;2023-08-30T02:45:59;1.43;;;0.90;;
13973;SDS011;7060;43.770;4.008;2023-08-30T02:48:33;1.90;;;0.93;;
13973;SDS011;7060;43.770;4.008;2023-08-30T02:51:02;1.37;;;0.90;;
13973;SDS011;7060;43.770;4.008;2023-08-30T02:53:31;1.23;;;1.03;;
13973;SDS011;7060;43.770;4.008;2023-08-30T02:56:00;1.20;;;0.90;;
13973;SDS011;7060;43.770;4.008;2023-08-30T02:58:29;2.47;;;1.00;;
13973;SDS011;7060;43.770;4.008;2023-08-30T03:01:00;2.63;;;1.23;;
13973;SDS011;7060;43.770;4.008;2023-08-30T03:03:30;1.77;;;0.90;;
13973;SDS011;7060;43.770;4.008;2023-08-30T03:06:00;1.30;;;0.87;;
13973;SDS011;7060;43.770;4.008;2023-08-30T03:08:30;2.73;;;0.80;;
13973;SDS011;7060;43.770;4.008;2023-08-30T03:11:07;1.33;;;0.90;;
13973;SDS011;7060;43.770;4.008;2023-08-30T03:13:40;1.37;;;1.00;;
13973;SDS011;7060;43.770;4.008;2023-08-30T03:16:10;1.97;;;0.80;;
13973;SDS011;7060;43.770;4.008;2023-08-30T03:18:40;1.83;;;1.00;;
13973;SDS011;7060;43.770;4.008;2023-08-30T03:21:11;1.67;;;0.93;;
13973;SDS011;7060;43.770;4.008;2023-08-30T03:23:41;2.07;;;1.13;;
13973;SDS011;7060;43.770;4.008;2023-08-30T03:26:10;5.90;;;1.10;;
13973;SDS011;7060;43.770;4.008;2023-08-30T03:28:40;4.17;;;1.67;;
13973;SDS011;7060;43.770;4.008;2023-08-30T03:31:13;3.90;;;1.10;;
13973;SDS011;7060;43.770;4.008;2023-08-30T03:33:44;2.00;;;1.10;;
13973;SDS011;7060;43.770;4.008;2023-08-30T03:36:16;1.40;;;0.90;;
13973;SDS011;7060;43.770;4.008;2023-08-30T03:38:46;1.60;;;0.97;;
13973;SDS011;7060;43.770;4.008;2023-08-30T03:41:15;2.23;;;1.10;;
13973;SDS011;7060;43.770;4.008;2023-08-30T03:43:44;1.43;;;0.90;;
13973;SDS011;7060;43.770;4.008;2023-08-30T03:46:12;2.40;;;0.80;;
13973;SDS011;7060;43.770;4.008;2023-08-30T03:48:41;2.17;;;1.27;;
13973;SDS011;7060;43.770;4.008;2023-08-30T03:51:10;3.03;;;1.00;;
13973;SDS011;7060;43.770;4.008;2023-08-30T03:53:41;3.37;;;1.17;;
13973;SDS011;7060;43.770;4.008;2023-08-30T03:56:09;1.57;;;0.90;;
13973;SDS011;7060;43.770;4.008;2023-08-30T03:58:38;1.90;;;0.90;;
13973;SDS011;7060;43.770;4.008;2023-08-30T04:01:07;2.43;;;1.10;;
13973;SDS011;7060;43.770;4.008;2023-08-30T04:03:37;2.57;;;1.00;;
13973;SDS011;7060;43.770;4.008;2023-08-30T04:06:07;1.77;;;1.00;;
13973;SDS011;7060;43.770;4.008;2023-08-30T04:08:35;1.63;;;1.00;;
13973;SDS011;7060;43.770;4.008;2023-08-30T04:11:06;1.10;;;0.80;;
13973;SDS011;7060;43.770;4.008;2023-08-30T04:13:34;1.90;;;0.87;;
13973;SDS011;7060;43.770;4.008;2023-08-30T04:16:03;2.43;;;1.10;;
13973;SDS011;7060;43.770;4.008;2023-08-30T04:18:32;3.73;;;1.17;;
13973;SDS011;7060;43.770;4.008;2023-08-30T04:21:01;2.47;;;1.10;;
13973;SDS011;7060;43.770;4.008;2023-08-30T04:23:30;3.33;;;1.23;;
13973;SDS011;7060;43.770;4.008;2023-08-30T04:25:59;2.47;;;1.00;;
13973;SDS011;7060;43.770;4.008;2023-08-30T04:28:29;4.20;;;1.27;;
13973;SDS011;7060;43.770;4.008;2023-08-30T04:30:59;2.20;;;0.80;;
13973;SDS011;7060;43.770;4.008;2023-08-30T04:33:28;1.50;;;1.00;;
13973;SDS011;7060;43.770;4.008;2023-08-30T04:35:57;2.27;;;1.10;;
13973;SDS011;7060;43.770;4.008;2023-08-30T04:38:27;2.90;;;1.47;;
13973;SDS011;7060;43.770;4.008;2023-08-30T04:40:57;1.30;;;0.83;;
13973;SDS011;7060;43.770;4.008;2023-08-30T04:43:32;1.93;;;1.07;;
13973;SDS011;7060;43.770;4.008;2023-08-30T04:46:01;1.70;;;1.00;;
13973;SDS011;7060;43.770;4.008;2023-08-30T04:48:30;1.27;;;1.10;;
13973;SDS011;7060;43.770;4.008;2023-08-30T04:50:59;1.57;;;1.03;;
13973;SDS011;7060;43.770;4.008;2023-08-30T04:53:30;2.57;;;1.17;;
13973;SDS011;7060;43.770;4.008;2023-08-30T04:55:59;1.77;;;1.20;;
13973;SDS011;7060;43.770;4.008;2023-08-30T04:58:29;2.00;;;1.10;;
13973;SDS011;7060;43.770;4.008;2023-08-30T05:01:00;2.43;;;1.40;;
13973;SDS011;7060;43.770;4.008;2023-08-30T05:03:29;1.60;;;1.07;;
13973;SDS011;7060;43.770;4.008;2023-08-30T05:05:59;1.50;;;0.90;;
13973;SDS011;7060;43.770;4.008;2023-08-30T05:08:28;1.93;;;1.00;;
13973;SDS011;7060;43.770;4.008;2023-08-30T05:10:57;0.90;;;0.80;;
13973;SDS011;7060;43.770;4.008;2023-08-30T05:13:26;2.37;;;1.10;;
13973;SDS011;7060;43.770;4.008;2023-08-30T05:15:55;2.87;;;0.87;;
13973;SDS011;7060;43.770;4.008;2023-08-30T05:18:25;1.70;;;0.90;;
13973;SDS011;7060;43.770;4.008;2023-08-30T05:20:55;3.17;;;1.27;;
13973;SDS011;7060;43.770;4.008;2023-08-30T05:23:24;3.17;;;1.10;;
13973;SDS011;7060;43.770;4.008;2023-08-30T05:25:53;1.77;;;0.87;;
13973;SDS011;7060;43.770;4.008;2023-08-30T05:28:23;1.87;;;1.00;;
13973;SDS011;7060;43.770;4.008;2023-08-30T05:30:52;2.70;;;1.07;;
13973;SDS011;7060;43.770;4.008;2023-08-30T05:33:30;1.30;;;0.80;;
13973;SDS011;7060;43.770;4.008;2023-08-30T05:36:25;1.50;;;1.00;;
13973;SDS011;7060;43.770;4.008;2023-08-30T05:39:15;1.73;;;0.90;;
13973;SDS011;7060;43.770;4.008;2023-08-30T05:41:49;1.73;;;1.10;;
13973;SDS011;7060;43.770;4.008;2023-08-30T05:44:20;2.17;;;0.90;;
13973;SDS011;7060;43.770;4.008;2023-08-30T05:46:49;1.33;;;0.80;;
13973;SDS011;7060;43.770;4.008;2023-08-30T05:49:19;1.83;;;0.93;;
13973;SDS011;7060;43.770;4.008;2023-08-30T05:51:48;1.83;;;1.00;;
13973;SDS011;7060;43.770;4.008;2023-08-30T05:54:17;1.60;;;1.00;;
13973;SDS011;7060;43.770;4.008;2023-08-30T05:56:45;1.03;;;0.80;;
13973;SDS011;7060;43.770;4.008;2023-08-30T05:59:15;1.33;;;0.80;;
13973;SDS011;7060;43.770;4.008;2023-08-30T06:01:44;1.73;;;1.00;;
13973;SDS011;7060;43.770;4.008;2023-08-30T06:04:13;1.87;;;0.73;;
13973;SDS011;7060;43.770;4.008;2023-08-30T06:06:43;5.83;;;0.90;;
13973;SDS011;7060;43.770;4.008;2023-08-30T06:09:12;2.33;;;0.90;;
13973;SDS011;7060;43.770;4.008;2023-08-30T06:11:41;3.30;;;1.20;;
13973;SDS011;7060;43.770;4.008;2023-08-30T06:14:09;1.67;;;1.10;;
13973;SDS011;7060;43.770;4.008;2023-08-30T06:16:39;2.90;;;1.10;;
13973;SDS011;7060;43.770;4.008;2023-08-30T06:19:11;1.50;;;1.03;;
13973;SDS011;7060;43.770;4.008;2023-08-30T06:21:40;3.33;;;1.00;;
13973;SDS011;7060;43.770;4.008;2023-08-30T06:24:10;1.13;;;0.83;;
13973;SDS011;7060;43.770;4.008;2023-08-30T06:26:39;2.60;;;0.90;;
13973;SDS011;7060;43.770;4.008;2023-08-30T06:29:07;1.50;;;0.90;;
13973;SDS011;7060;43.770;4.008;2023-08-30T06:31:36;2.27;;;1.00;;
13973;SDS011;7060;43.770;4.008;2023-08-30T06:34:07;5.33;;;1.30;;
13973;SDS011;7060;43.770;4.008;2023-08-30T06:36:35;1.40;;;1.00;;
13973;SDS011;7060;43.770;4.008;2023-08-30T06:39:04;2.30;;;1.20;;
13973;SDS011;7060;43.770;4.008;2023-08-30T06:41:34;4.07;;;1.20;;
13973;SDS011;7060;43.770;4.008;2023-08-30T06:44:03;3.30;;;1.40;;
13973;SDS011;7060;43.770;4.008;2023-08-30T06:46:33;2.30;;;1.30;;
13973;SDS011;7060;43.770;4.008;2023-08-30T06:49:02;2.63;;;1.70;;
13973;SDS011;7060;43.770;4.008;2023-08-30T06:51:31;4.70;;;1.23;;
13973;SDS011;7060;43.770;4.008;2023-08-30T06:54:01;1.90;;;1.23;;
13973;SDS011;7060;43.770;4.008;2023-08-30T06:56:29;3.77;;;1.40;;
13973;SDS011;7060;43.770;4.008;2023-08-30T06:59:00;4.33;;;1.60;;
13973;SDS011;7060;43.770;4.008;2023-08-30T07:01:34;2.93;;;1.07;;
13973;SDS011;7060;43.770;4.008;2023-08-30T07:04:04;1.10;;;0.97;;
13973;SDS011;7060;43.770;4.008;2023-08-30T07:06:33;1.10;;;1.00;;
13973;SDS011;7060;43.770;4.008;2023-08-30T07:09:02;1.57;;;1.00;;
13973;SDS011;7060;43.770;4.008;2023-08-30T07:11:33;2.00;;;1.00;;
13973;SDS011;7060;43.770;4.008;2023-08-30T07:14:04;1.67;;;1.07;;
13973;SDS011;7060;43.770;4.008;2023-08-30T07:16:33;1.30;;;0.90;;
13973;SDS011;7060;43.770;4.008;2023-08-30T07:19:01;1.23;;;1.00;;
13973;SDS011;7060;43.770;4.008;2023-08-30T07:21:30;1.50;;;1.00;;
13973;SDS011;7060;43.770;4.008;2023-08-30T07:24:00;1.10;;;1.00;;
13973;SDS011;7060;43.770;4.008;2023-08-30T07:26:28;1.93;;;1.00;;
13973;SDS011;7060;43.770;4.008;2023-08-30T07:28:57;1.57;;;0.97;;
13973;SDS011;7060;43.770;4.008;2023-08-30T07:31:27;1.07;;;0.77;;
13973;SDS011;7060;43.770;4.008;2023-08-30T07:33:56;1.97;;;1.10;;
13973;SDS011;7060;43.770;4.008;2023-08-30T07:36:26;1.33;;;0.90;;
13973;SDS011;7060;43.770;4.008;2023-08-30T07:39:12;2.87;;;1.00;;
13973;SDS011;7060;43.770;4.008;2023-08-30T07:41:41;2.17;;;0.97;;
13973;SDS011;7060;43.770;4.008;2023-08-30T07:44:10;1.90;;;1.20;;
13973;SDS011;7060;43.770;4.008;2023-08-30T07:46:40;1.30;;;1.00;;
13973;SDS011;7060;43.770;4.008;2023-08-30T07:49:09;1.43;;;1.10;;
13973;SDS011;7060;43.770;4.008;2023-08-30T07:51:37;1.97;;;1.10;;
13973;SDS011;7060;43.770;4.008;2023-08-30T07:54:06;2.13;;;1.20;;
13973;SDS011;7060;43.770;4.008;2023-08-30T07:56:36;1.90;;;1.03;;
13973;SDS011;7060;43.770;4.008;2023-08-30T07:59:04;2.60;;;1.10;;
13973;SDS011;7060;43.770;4.008;2023-08-30T08:01:33;1.10;;;0.93;;
13973;SDS011;7060;43.770;4.008;2023-08-30T08:04:04;3.40;;;1.23;;
13973;SDS011;7060;43.770;4.008;2023-08-30T08:06:34;2.13;;;1.03;;
13973;SDS011;7060;43.770;4.008;2023-08-30T08:09:04;1.90;;;1.17;;
13973;SDS011;7060;43.770;4.008;2023-08-30T08:11:34;2.03;;;1.33;;
13973;SDS011;7060;43.770;4.008;2023-08-30T08:14:03;3.97;;;1.30;;
13973;SDS011;7060;43.770;4.008;2023-08-30T08:16:32;1.77;;;1.20;;
13973;SDS011;7060;43.770;4.008;2023-08-30T08:19:04;1.73;;;1.23;;
13973;SDS011;7060;43.770;4.008;2023-08-30T08:21:34;2.27;;;1.30;;
13973;SDS011;7060;43.770;4.008;2023-08-30T08:24:03;1.57;;;1.27;;
13973;SDS011;7060;43.770;4.008;2023-08-30T08:26:32;1.83;;;1.20;;
13973;SDS011;7060;43.770;4.008;2023-08-30T08:29:00;2.00;;;1.20;;
13973;SDS011;7060;43.770;4.008;2023-08-30T08:31:30;2.03;;;1.33;;
13973;SDS011;7060;43.770;4.008;2023-08-30T08:34:08;1.67;;;1.20;;
13973;SDS011;7060;43.770;4.008;2023-08-30T08:36:38;1.60;;;1.13;;
13973;SDS011;7060;43.770;4.008;2023-08-30T08:39:09;1.60;;;1.27;;
13973;SDS011;7060;43.770;4.008;2023-08-30T08:41:39;1.47;;;1.10;;
13973;SDS011;7060;43.770;4.008;2023-08-30T08:44:09;2.30;;;1.70;;
13973;SDS011;7060;43.770;4.008;2023-08-30T08:46:39;1.87;;;1.30;;
13973;SDS011;7060;43.770;4.008;2023-08-30T08:49:11;2.27;;;1.33;;
13973;SDS011;7060;43.770;4.008;2023-08-30T08:51:40;4.10;;;1.80;;
13973;SDS011;7060;43.770;4.008;2023-08-30T08:54:10;2.28;;;1.40;;
13973;SDS011;7060;43.770;4.008;2023-08-30T08:56:40;2.00;;;1.40;;
13973;SDS011;7060;43.770;4.008;2023-08-30T08:59:08;2.72;;;1.20;;
13973;SDS011;7060;43.770;4.008;2023-08-30T09:01:38;2.20;;;1.52;;
13973;SDS011;7060;43.770;4.008;2023-08-30T09:04:08;3.22;;;1.50;;
13973;SDS011;7060;43.770;4.008;2023-08-30T09:06:39;1.95;;;1.27;;
13973;SDS011;7060;43.770;4.008;2023-08-30T09:09:10;2.35;;;1.70;;
13973;SDS011;7060;43.770;4.008;2023-08-30T09:11:40;1.90;;;1.70;;
13973;SDS011;7060;43.770;4.008;2023-08-30T09:14:17;3.10;;;1.10;;
13973;SDS011;7060;43.770;4.008;2023-08-30T09:16:56;1.73;;;1.30;;
13973;SDS011;7060;43.770;4.008;2023-08-30T09:19:27;1.30;;;1.20;;
13973;SDS011;7060;43.770;4.008;2023-08-30T09:21:58;5.55;;;1.35;;
13973;SDS011;7060;43.770;4.008;2023-08-30T09:24:37;2.30;;;1.38;;
13973;SDS011;7060;43.770;4.008;2023-08-30T09:27:08;1.85;;;1.23;;
13973;SDS011;7060;43.770;4.008;2023-08-30T09:29:41;2.63;;;1.30;;
13973;SDS011;7060;43.770;4.008;2023-08-30T09:32:12;2.03;;;1.45;;
13973;SDS011;7060;43.770;4.008;2023-08-30T09:34:45;1.90;;;1.30;;
13973;SDS011;7060;43.770;4.008;2023-08-30T09:37:23;1.55;;;1.20;;
13973;SDS011;7060;43.770;4.008;2023-08-30T09:39:53;1.35;;;1.05;;
13973;SDS011;7060;43.770;4.008;2023-08-30T09:42:22;15.63;;;1.40;;
13973;SDS011;7060;43.770;4.008;2023-08-30T09:44:51;1.52;;;1.20;;
13973;SDS011;7060;43.770;4.008;2023-08-30T09:47:20;2.05;;;1.42;;
13973;SDS011;7060;43.770;4.008;2023-08-30T09:49:54;1.73;;;1.20;;
13973;SDS011;7060;43.770;4.008;2023-08-30T09:52:25;2.33;;;1.20;;
13973;SDS011;7060;43.770;4.008;2023-08-30T09:54:56;1.75;;;1.20;;
13973;SDS011;7060;43.770;4.008;2023-08-30T09:57:26;1.48;;;1.17;;
13973;SDS011;7060;43.770;4.008;2023-08-30T09:59:56;2.03;;;1.20;;
13973;SDS011;7060;43.770;4.008;2023-08-30T10:02:26;4.93;;;1.42;;
13973;SDS011;7060;43.770;4.008;2023-08-30T10:04:56;3.13;;;1.30;;
13973;SDS011;7060;43.770;4.008;2023-08-30T10:07:27;2.05;;;1.38;;
13973;SDS011;7060;43.770;4.008;2023-08-30T10:09:56;2.90;;;1.23;;
13973;SDS011;7060;43.770;4.008;2023-08-30T10:12:35;1.92;;;1.33;;
13973;SDS011;7060;43.770;4.008;2023-08-30T10:15:06;2.08;;;1.58;;
13973;SDS011;7060;43.770;4.008;2023-08-30T10:17:35;3.90;;;1.48;;
13973;SDS011;7060;43.770;4.008;2023-08-30T10:20:09;1.80;;;1.30;;
13973;SDS011;7060;43.770;4.008;2023-08-30T10:22:41;2.28;;;1.25;;
13973;SDS011;7060;43.770;4.008;2023-08-30T10:25:13;1.98;;;1.42;;
13973;SDS011;7060;43.770;4.008;2023-08-30T10:27:46;8.25;;;1.42;;
13973;SDS011;7060;43.770;4.008;2023-08-30T10:30:18;1.65;;;1.40;;
13973;SDS011;7060;43.770;4.008;2023-08-30T10:32:49;2.22;;;2.00;;
13973;SDS011;7060;43.770;4.008;2023-08-30T10:35:19;3.08;;;1.40;;
13973;SDS011;7060;43.770;4.008;2023-08-30T10:37:59;2.67;;;1.30;;
13973;SDS011;7060;43.770;4.008;2023-08-30T10:40:28;2.15;;;1.20;;
13973;SDS011;7060;43.770;4.008;2023-08-30T10:42:58;1.60;;;1.50;;
13973;SDS011;7060;43.770;4.008;2023-08-30T10:45:28;1.73;;;1.42;;
13973;SDS011;7060;43.770;4.008;2023-08-30T10:47:57;2.47;;;1.33;;
13973;SDS011;7060;43.770;4.008;2023-08-30T10:50:33;2.05;;;1.45;;
13973;SDS011;7060;43.770;4.008;2023-08-30T10:53:04;2.22;;;1.40;;
13973;SDS011;7060;43.770;4.008;2023-08-30T10:55:41;1.55;;;1.20;;
13973;SDS011;7060;43.770;4.008;2023-08-30T10:58:43;2.78;;;1.45;;
13973;SDS011;7060;43.770;4.008;2023-08-30T11:01:12;2.28;;;1.42;;
13973;SDS011;7060;43.770;4.008;2023-08-30T11:03:41;3.25;;;2.05;;
13973;SDS011;7060;43.770;4.008;2023-08-30T11:06:13;1.38;;;1.25;;
13973;SDS011;7060;43.770;4.008;2023-08-30T11:08:46;2.00;;;1.55;;
13973;SDS011;7060;43.770;4.008;2023-08-30T11:11:16;1.70;;;1.33;;
13973;SDS011;7060;43.770;4.008;2023-08-30T11:13:46;2.13;;;1.67;;
13973;SDS011;7060;43.770;4.008;2023-08-30T11:16:20;2.35;;;1.90;;
13973;SDS011;7060;43.770;4.008;2023-08-30T11:18:50;2.15;;;1.63;;
13973;SDS011;7060;43.770;4.008;2023-08-30T11:21:18;1.45;;;1.35;;
13973;SDS011;7060;43.770;4.008;2023-08-30T11:23:51;2.50;;;1.63;;
13973;SDS011;7060;43.770;4.008;2023-08-30T11:26:21;2.08;;;1.50;;
13973;SDS011;7060;43.770;4.008;2023-08-30T11:28:55;2.38;;;1.70;;
13973;SDS011;7060;43.770;4.008;2023-08-30T11:31:25;2.15;;;1.73;;
13973;SDS011;7060;43.770;4.008;2023-08-30T11:33:58;1.88;;;1.42;;
13973;SDS011;7060;43.770;4.008;2023-08-30T11:36:29;1.70;;;1.50;;
13973;SDS011;7060;43.770;4.008;2023-08-30T11:39:00;1.95;;;1.60;;
13973;SDS011;7060;43.770;4.008;2023-08-30T11:41:30;2.33;;;1.40;;
13973;SDS011;7060;43.770;4.008;2023-08-30T11:43:59;1.92;;;1.63;;
13973;SDS011;7060;43.770;4.008;2023-08-30T11:46:30;2.13;;;1.60;;
13973;SDS011;7060;43.770;4.008;2023-08-30T11:49:00;2.00;;;1.60;;
13973;SDS011;7060;43.770;4.008;2023-08-30T11:51:29;1.73;;;1.40;;
13973;SDS011;7060;43.770;4.008;2023-08-30T11:54:01;3.35;;;1.90;;
13973;SDS011;7060;43.770;4.008;2023-08-30T11:56:30;1.88;;;1.40;;
13973;SDS011;7060;43.770;4.008;2023-08-30T11:58:59;2.67;;;1.60;;
13973;SDS011;7060;43.770;4.008;2023-08-30T12:01:29;1.88;;;1.60;;
13973;SDS011;7060;43.770;4.008;2023-08-30T12:03:58;2.00;;;1.67;;
13973;SDS011;7060;43.770;4.008;2023-08-30T12:06:37;2.20;;;1.80;;
13973;SDS011;7060;43.770;4.008;2023-08-30T12:09:11;2.42;;;1.60;;
13973;SDS011;7060;43.770;4.008;2023-08-30T12:11:40;2.13;;;1.83;;
13973;SDS011;7060;43.770;4.008;2023-08-30T12:14:09;3.25;;;2.00;;
13973;SDS011;7060;43.770;4.008;2023-08-30T12:16:39;3.17;;;1.88;;
13973;SDS011;7060;43.770;4.008;2023-08-30T12:19:08;2.58;;;1.85;;
13973;SDS011;7060;43.770;4.008;2023-08-30T12:21:42;1.85;;;1.50;;
13973;SDS011;7060;43.770;4.008;2023-08-30T12:24:12;2.45;;;1.73;;
13973;SDS011;7060;43.770;4.008;2023-08-30T12:26:42;2.15;;;1.90;;
13973;SDS011;7060;43.770;4.008;2023-08-30T12:29:11;3.75;;;2.30;;
13973;SDS011;7060;43.770;4.008;2023-08-30T12:31:40;2.90;;;2.03;;
13973;SDS011;7060;43.770;4.008;2023-08-30T12:34:08;2.47;;;2.25;;
13973;SDS011;7060;43.770;4.008;2023-08-30T12:36:37;2.42;;;1.98;;
13973;SDS011;7060;43.770;4.008;2023-08-30T12:39:06;2.08;;;1.88;;
13973;SDS011;7060;43.770;4.008;2023-08-30T12:41:37;3.05;;;2.38;;
13973;SDS011;7060;43.770;4.008;2023-08-30T12:44:06;3.33;;;2.70;;
13973;SDS011;7060;43.770;4.008;2023-08-30T12:46:35;3.15;;;2.85;;
13973;SDS011;7060;43.770;4.008;2023-08-30T12:49:03;3.40;;;2.58;;
13973;SDS011;7060;43.770;4.008;2023-08-30T12:51:33;3.13;;;2.83;;
13973;SDS011;7060;43.770;4.008;2023-08-30T12:54:02;3.38;;;2.80;;
13973;SDS011;7060;43.770;4.008;2023-08-30T12:56:31;3.78;;;3.08;;
13973;SDS011;7060;43.770;4.008;2023-08-30T12:59:02;2.95;;;2.38;;
13973;SDS011;7060;43.770;4.008;2023-08-30T13:01:31;2.97;;;2.67;;
13973;SDS011;7060;43.770;4.008;2023-08-30T13:04:00;3.50;;;3.20;;
13973;SDS011;7060;43.770;4.008;2023-08-30T13:06:30;4.70;;;3.15;;
13973;SDS011;7060;43.770;4.008;2023-08-30T13:08:59;4.00;;;3.15;;
13973;SDS011;7060;43.770;4.008;2023-08-30T13:11:28;3.65;;;2.83;;
13973;SDS011;7060;43.770;4.008;2023-08-30T13:13:59;5.05;;;3.20;;
13973;SDS011;7060;43.770;4.008;2023-08-30T13:16:31;3.67;;;3.17;;
13973;SDS011;7060;43.770;4.008;2023-08-30T13:19:00;3.42;;;3.13;;
13973;SDS011;7060;43.770;4.008;2023-08-30T13:21:29;3.65;;;2.83;;
13973;SDS011;7060;43.770;4.008;2023-08-30T13:24:07;4.00;;;3.08;;
13973;SDS011;7060;43.770;4.008;2023-08-30T13:26:36;4.50;;;3.22;;
13973;SDS011;7060;43.770;4.008;2023-08-30T13:29:05;5.30;;;2.90;;
13973;SDS011;7060;43.770;4.008;2023-08-30T13:31:35;3.50;;;3.20;;
13973;SDS011;7060;43.770;4.008;2023-08-30T13:34:04;3.58;;;3.22;;
13973;SDS011;7060;43.770;4.008;2023-08-30T13:36:33;3.58;;;3.25;;
13973;SDS011;7060;43.770;4.008;2023-08-30T13:39:03;3.50;;;3.17;;
13973;SDS011;7060;43.770;4.008;2023-08-30T13:41:32;3.15;;;2.65;;
13973;SDS011;7060;43.770;4.008;2023-08-30T13:44:02;3.55;;;2.38;;
13973;SDS011;7060;43.770;4.008;2023-08-30T13:46:32;3.83;;;3.42;;
13973;SDS011;7060;43.770;4.008;2023-08-30T13:49:03;3.20;;;2.90;;
13973;SDS011;7060;43.770;4.008;2023-08-30T13:51:32;2.95;;;2.65;;
13973;SDS011;7060;43.770;4.008;2023-08-30T13:54:01;4.45;;;2.80;;
13973;SDS011;7060;43.770;4.008;2023-08-30T13:56:29;2.58;;;2.35;;
13973;SDS011;7060;43.770;4.008;2023-08-30T13:58:58;2.20;;;2.00;;
13973;SDS011;7060;43.770;4.008;2023-08-30T14:01:27;2.47;;;2.17;;
13973;SDS011;7060;43.770;4.008;2023-08-30T14:03:57;2.45;;;2.13;;
13973;SDS011;7060;43.770;4.008;2023-08-30T14:06:27;3.13;;;2.30;;
13973;SDS011;7060;43.770;4.008;2023-08-30T14:08:56;2.63;;;2.15;;
13973;SDS011;7060;43.770;4.008;2023-08-30T14:11:25;2.42;;;2.10;;
13973;SDS011;7060;43.770;4.008;2023-08-30T14:13:55;2.65;;;2.45;;
13973;SDS011;7060;43.770;4.008;2023-08-30T14:16:24;3.60;;;2.13;;
13973;SDS011;7060;43.770;4.008;2023-08-30T14:18:54;3.03;;;2.72;;
13973;SDS011;7060;43.770;4.008;2023-08-30T14:21:30;2.45;;;2.13;;
13973;SDS011;7060;43.770;4.008;2023-08-30T14:23:59;2.70;;;2.22;;
13973;SDS011;7060;43.770;4.008;2023-08-30T14:26:28;1.98;;;1.73;;
13973;SDS011;7060;43.770;4.008;2023-08-30T14:28:57;2.03;;;1.83;;
13973;SDS011;7060;43.770;4.008;2023-08-30T14:31:25;1.70;;;1.52;;
13973;SDS011;7060;43.770;4.008;2023-08-30T14:33:56;1.77;;;1.33;;
13973;SDS011;7060;43.770;4.008;2023-08-30T14:36:25;1.67;;;1.20;;
13973;SDS011;7060;43.770;4.008;2023-08-30T14:38:56;1.40;;;1.30;;
13973;SDS011;7060;43.770;4.008;2023-08-30T14:41:24;1.65;;;1.40;;
13973;SDS011;7060;43.770;4.008;2023-08-30T14:43:55;1.65;;;1.50;;
13973;SDS011;7060;43.770;4.008;2023-08-30T14:46:24;1.40;;;1.27;;
13973;SDS011;7060;43.770;4.008;2023-08-30T14:48:53;1.88;;;1.45;;
13973;SDS011;7060;43.770;4.008;2023-08-30T14:51:22;3.20;;;1.92;;
13973;SDS011;7060;43.770;4.008;2023-08-30T14:53:50;1.80;;;1.60;;
13973;SDS011;7060;43.770;4.008;2023-08-30T14:56:21;1.40;;;1.27;;
13973;SDS011;7060;43.770;4.008;2023-08-30T14:58:49;1.67;;;1.40;;
13973;SDS011;7060;43.770;4.008;2023-08-30T15:01:19;1.80;;;1.30;;
13973;SDS011;7060;43.770;4.008;2023-08-30T15:03:48;1.77;;;1.48;;
13973;SDS011;7060;43.770;4.008;2023-08-30T15:06:17;2.00;;;1.80;;
13973;SDS011;7060;43.770;4.008;2023-08-30T15:08:46;2.22;;;1.60;;
13973;SDS011;7060;43.770;4.008;2023-08-30T15:11:14;4.65;;;1.85;;
13973;SDS011;7060;43.770;4.008;2023-08-30T15:13:45;2.88;;;2.20;;
13973;SDS011;7060;43.770;4.008;2023-08-30T15:16:13;2.20;;;1.95;;
13973;SDS011;7060;43.770;4.008;2023-08-30T15:18:42;2.60;;;2.28;;